Time;durP1;ratioP1;P1;durP2;ratioP2;P2;SDS_P1;SDS_P2;PMS_P1;PMS_P2;Temp;Humidity;BMP_temperature;BMP_pressure;BME280_temperature;BME280_humidity;BME280_pressure;Samples;Min_cycle;Max_cycle;Signal;HPM_P1;HPM_P2
2020/12/31 00:01:18;;;;;;;8.25;4.88;;;5.00;99.90;;;;;;5026133;28;20180;-81
2020/12/31 00:03:44;;;;;;;9.00;4.70;;;4.90;99.90;;;;;;5060153;28;20275;-80
2020/12/31 00:06:10;;;;;;;7.90;4.30;;;4.90;99.90;;;;;;5059855;28;20180;-81
2020/12/31 00:08:35;;;;;;;5.70;4.87;;;4.80;99.90;;;;;;5025120;28;20441;-80
2020/12/31 00:11:01;;;;;;;5.17;4.20;;;4.80;99.90;;;;;;5025072;28;20315;-80
2020/12/31 00:13:27;;;;;;;7.63;4.77;;;4.70;99.90;;;;;;5059869;28;20250;-81
2020/12/31 00:15:54;;;;;;;6.53;4.60;;;4.70;99.90;;;;;;5058967;28;20223;-80
2020/12/31 00:18:20;;;;;;;6.22;4.50;;;4.70;99.90;;;;;;5041174;28;20211;-79
2020/12/31 00:20:45;;;;;;;7.73;4.87;;;4.60;99.90;;;;;;5049848;28;20169;-80
2020/12/31 00:23:11;;;;;;;7.20;4.97;;;4.60;99.90;;;;;;5062812;28;20362;-80
2020/12/31 00:25:45;;;;;;;8.23;5.03;;;4.60;99.90;;;;;;5026129;28;20208;-80
2020/12/31 00:28:11;;;;;;;9.05;5.20;;;4.60;99.90;;;;;;5060668;28;20264;-81
2020/12/31 00:30:36;;;;;;;6.10;4.63;;;4.60;99.90;;;;;;5042659;28;20236;-81
2020/12/31 00:33:02;;;;;;;7.20;5.03;;;4.60;99.90;;;;;;5025083;28;20177;-80
2020/12/31 00:35:28;;;;;;;6.63;4.77;;;4.70;99.90;;;;;;5059657;28;20188;-80
2020/12/31 00:37:54;;;;;;;6.72;4.68;;;4.70;99.90;;;;;;5060406;28;20398;-80
2020/12/31 00:40:20;;;;;;;7.80;4.50;;;4.60;99.90;;;;;;5062364;28;20518;-80
2020/12/31 00:42:46;;;;;;;10.07;5.30;;;4.70;99.90;;;;;;5048512;28;20180;-79
2020/12/31 00:45:11;;;;;;;6.23;4.93;;;4.70;99.90;;;;;;5066563;28;20452;-79
2020/12/31 00:47:37;;;;;;;9.20;4.60;;;4.70;99.90;;;;;;5060266;28;20411;-80
2020/12/31 00:50:03;;;;;;;4.80;3.70;;;4.70;99.90;;;;;;5061015;28;20203;-79
2020/12/31 00:52:29;;;;;;;8.52;4.40;;;4.80;99.90;;;;;;5059616;28;20176;-80
2020/12/31 00:54:54;;;;;;;5.20;4.27;;;4.70;99.90;;;;;;5060988;28;20192;-80
2020/12/31 00:57:20;;;;;;;6.50;4.53;;;4.70;99.90;;;;;;5059921;28;20534;-79
2020/12/31 00:59:46;;;;;;;7.90;4.80;;;4.70;99.90;;;;;;5058877;28;20169;-80
2020/12/31 01:02:11;;;;;;;6.97;4.93;;;4.70;99.90;;;;;;5043234;28;20215;-79
2020/12/31 01:04:37;;;;;;;6.60;4.70;;;4.80;99.90;;;;;;5061773;28;20193;-79
2020/12/31 01:07:03;;;;;;;4.90;4.20;;;4.70;99.90;;;;;;5061524;28;20415;-79
2020/12/31 01:09:28;;;;;;;6.10;4.70;;;4.70;99.90;;;;;;5059228;28;20275;-80
2020/12/31 01:11:56;;;;;;;6.17;4.27;;;4.70;99.90;;;;;;5056625;28;20176;-79
2020/12/31 01:14:22;;;;;;;7.47;4.72;;;4.70;99.90;;;;;;5059154;28;20189;-80
2020/12/31 01:16:49;;;;;;;6.43;4.63;;;4.70;99.90;;;;;;5058976;28;20168;-79
2020/12/31 01:19:15;;;;;;;5.72;4.05;;;4.80;99.90;;;;;;5059949;28;20644;-80
2020/12/31 01:21:45;;;;;;;4.57;4.05;;;4.70;99.90;;;;;;5059318;28;20480;-81
2020/12/31 01:24:12;;;;;;;12.35;5.35;;;4.80;99.90;;;;;;5059652;28;20201;-80
2020/12/31 01:26:37;;;;;;;6.18;4.68;;;4.80;99.90;;;;;;5058486;28;20173;-81
2020/12/31 01:29:04;;;;;;;7.63;4.30;;;4.80;99.90;;;;;;5057240;28;20208;-80
2020/12/31 01:31:30;;;;;;;6.05;4.57;;;4.80;99.90;;;;;;5058899;28;20164;-79
2020/12/31 01:33:56;;;;;;;7.20;4.70;;;4.80;99.90;;;;;;5059177;28;20648;-79
2020/12/31 01:36:22;;;;;;;6.55;4.65;;;4.80;99.90;;;;;;5040366;28;20303;-79
2020/12/31 01:38:47;;;;;;;5.97;4.00;;;4.90;99.90;;;;;;5043142;28;20663;-80
2020/12/31 01:41:14;;;;;;;6.20;4.73;;;4.80;99.90;;;;;;5061320;28;21233;-82
2020/12/31 01:43:40;;;;;;;5.40;3.75;;;4.80;99.90;;;;;;5059367;28;20176;-79
2020/12/31 01:46:11;;;;;;;9.30;4.10;;;4.90;99.90;;;;;;5044773;28;20240;-79
2020/12/31 01:48:38;;;;;;;5.30;4.32;;;4.90;99.90;;;;;;5064283;28;20215;-80
2020/12/31 01:51:04;;;;;;;4.40;3.75;;;4.80;99.90;;;;;;5041509;28;20286;-80
2020/12/31 01:53:30;;;;;;;8.20;4.80;;;4.90;99.90;;;;;;5060571;28;20236;-79
2020/12/31 01:56:00;;;;;;;9.40;4.43;;;4.90;99.90;;;;;;5058249;28;20173;-80
2020/12/31 01:58:26;;;;;;;8.07;5.05;;;4.90;99.90;;;;;;5057949;28;20543;-80
2020/12/31 02:00:51;;;;;;;9.03;4.60;;;4.90;99.90;;;;;;5057546;28;20175;-80
2020/12/31 02:03:17;;;;;;;9.53;4.90;;;4.90;99.90;;;;;;5058996;28;20587;-80
2020/12/31 02:05:44;;;;;;;7.13;4.30;;;4.90;99.90;;;;;;5059348;28;20802;-80
2020/12/31 02:08:10;;;;;;;7.10;4.43;;;4.90;99.90;;;;;;5058044;28;20169;-79
2020/12/31 02:10:36;;;;;;;9.50;5.27;;;4.80;99.90;;;;;;5057200;28;20563;-79
2020/12/31 02:13:01;;;;;;;10.10;4.87;;;4.80;99.90;;;;;;5058005;28;20169;-80
2020/12/31 02:15:28;;;;;;;6.77;4.63;;;4.90;99.90;;;;;;5042980;28;20238;-80
2020/12/31 02:17:54;;;;;;;7.80;4.38;;;4.90;99.90;;;;;;5059685;28;20157;-80
2020/12/31 02:20:19;;;;;;;9.27;5.27;;;4.90;99.90;;;;;;5061532;28;20184;-80
2020/12/31 02:22:45;;;;;;;6.50;4.30;;;4.90;99.90;;;;;;5062538;28;20172;-79
2020/12/31 02:25:11;;;;;;;7.53;5.03;;;4.90;99.90;;;;;;5062107;28;20203;-81
2020/12/31 02:27:36;;;;;;;5.87;4.00;;;4.90;99.90;;;;;;5045125;28;20555;-80
2020/12/31 02:30:03;;;;;;;5.47;3.87;;;4.90;99.90;;;;;;5062041;28;20208;-80
2020/12/31 02:32:28;;;;;;;7.10;4.80;;;4.90;99.90;;;;;;5061594;28;20196;-79
2020/12/31 02:34:54;;;;;;;7.77;5.20;;;4.90;99.90;;;;;;5064181;28;20222;-79
2020/12/31 02:37:20;;;;;;;9.47;5.27;;;4.90;99.90;;;;;;5063792;28;20195;-79
2020/12/31 02:39:45;;;;;;;9.17;5.90;;;4.90;99.90;;;;;;5030819;28;20624;-79
2020/12/31 02:42:11;;;;;;;4.83;4.30;;;4.90;99.90;;;;;;5062903;28;20180;-80
2020/12/31 02:44:37;;;;;;;5.33;4.37;;;4.80;99.90;;;;;;5063057;28;20193;-80
2020/12/31 02:47:02;;;;;;;6.00;4.50;;;4.80;99.90;;;;;;5063701;28;20682;-79
2020/12/31 02:49:28;;;;;;;6.90;5.17;;;4.70;99.90;;;;;;5048561;28;20200;-79
2020/12/31 02:51:53;;;;;;;6.63;4.33;;;4.70;99.90;;;;;;5065294;28;20542;-80
2020/12/31 02:54:19;;;;;;;6.20;3.97;;;4.60;99.90;;;;;;5063016;28;20219;-80
2020/12/31 02:56:45;;;;;;;6.47;4.30;;;4.60;99.90;;;;;;5047068;28;20172;-79
2020/12/31 02:59:10;;;;;;;8.77;4.73;;;4.70;99.90;;;;;;5064106;28;20180;-79
2020/12/31 03:01:36;;;;;;;8.00;5.37;;;4.70;99.90;;;;;;5042746;28;20176;-79
2020/12/31 03:04:01;;;;;;;6.03;5.13;;;4.70;99.90;;;;;;5058332;28;20220;-81
2020/12/31 03:06:27;;;;;;;10.03;4.67;;;4.60;99.90;;;;;;5058182;28;20207;-80
2020/12/31 03:08:53;;;;;;;5.80;4.63;;;4.60;99.90;;;;;;5059425;28;20212;-80
2020/12/31 03:11:20;;;;;;;7.97;5.00;;;4.60;99.90;;;;;;5057628;28;20205;-80
2020/12/31 03:13:46;;;;;;;5.45;4.70;;;4.50;99.90;;;;;;5058108;28;20169;-80
2020/12/31 03:16:12;;;;;;;9.13;4.88;;;4.60;99.90;;;;;;5060691;28;20168;-80
2020/12/31 03:18:37;;;;;;;5.87;4.80;;;4.60;99.90;;;;;;5042029;28;20173;-78
2020/12/31 03:21:04;;;;;;;9.27;5.70;;;4.60;99.90;;;;;;5060471;28;20172;-79
2020/12/31 03:23:30;;;;;;;6.93;4.68;;;4.60;99.90;;;;;;5058576;28;20177;-80
2020/12/31 03:25:55;;;;;;;7.77;4.50;;;4.60;99.90;;;;;;5059970;28;20184;-80
2020/12/31 03:28:21;;;;;;;8.97;4.10;;;4.60;99.90;;;;;;5059708;28;20536;-81
2020/12/31 03:30:47;;;;;;;8.07;4.67;;;4.50;99.90;;;;;;5058322;28;20187;-79
2020/12/31 03:33:13;;;;;;;9.83;5.97;;;4.50;99.90;;;;;;5058614;28;20184;-80
2020/12/31 03:35:44;;;;;;;4.78;4.32;;;4.50;99.90;;;;;;5058371;28;20242;-80
2020/12/31 03:38:11;;;;;;;6.15;4.00;;;4.50;99.90;;;;;;5059723;28;20188;-79
2020/12/31 03:40:37;;;;;;;7.30;4.63;;;4.50;99.90;;;;;;5058258;28;20230;-81
2020/12/31 03:43:03;;;;;;;8.52;5.00;;;4.50;99.90;;;;;;5057550;28;20200;-79
2020/12/31 03:45:29;;;;;;;6.63;5.07;;;4.50;99.90;;;;;;5057718;28;20193;-80
2020/12/31 03:47:55;;;;;;;6.03;4.10;;;4.60;99.90;;;;;;5024788;28;20175;-80
2020/12/31 03:50:21;;;;;;;7.00;5.27;;;4.50;99.90;;;;;;5057245;28;20193;-79
2020/12/31 03:52:48;;;;;;;5.88;4.40;;;4.60;99.90;;;;;;5057404;28;20532;-78
2020/12/31 03:55:13;;;;;;;10.48;4.60;;;4.60;99.90;;;;;;5062811;28;20185;-79
2020/12/31 03:57:39;;;;;;;9.17;4.67;;;4.60;99.90;;;;;;5058374;28;20207;-79
2020/12/31 04:00:05;;;;;;;7.53;4.40;;;4.60;99.90;;;;;;5056043;28;20200;-80
2020/12/31 04:02:31;;;;;;;9.07;5.63;;;4.60;99.90;;;;;;5057795;28;20180;-81
2020/12/31 04:04:58;;;;;;;5.03;4.47;;;4.60;99.90;;;;;;5055450;28;20273;-80
2020/12/31 04:07:24;;;;;;;6.80;5.30;;;4.60;99.90;;;;;;5038597;28;20552;-80
2020/12/31 04:09:50;;;;;;;5.90;4.30;;;4.60;99.90;;;;;;5055008;28;20216;-80
2020/12/31 04:12:15;;;;;;;5.87;4.70;;;4.60;99.90;;;;;;5055401;28;20184;-80
2020/12/31 04:14:41;;;;;;;7.87;4.73;;;4.60;99.90;;;;;;5055329;28;20434;-80
2020/12/31 04:17:06;;;;;;;8.07;5.33;;;4.70;99.90;;;;;;5053410;28;20204;-79
2020/12/31 04:19:32;;;;;;;8.87;4.43;;;4.70;99.90;;;;;;5053549;28;20173;-81
2020/12/31 04:21:58;;;;;;;7.10;4.50;;;4.70;99.90;;;;;;5055312;28;20195;-79
2020/12/31 04:24:24;;;;;;;9.90;5.10;;;4.70;99.90;;;;;;5020857;28;20196;-81
2020/12/31 04:26:53;;;;;;;9.13;5.13;;;4.70;99.90;;;;;;5055761;28;20168;-79
2020/12/31 04:29:18;;;;;;;5.70;4.85;;;4.70;99.90;;;;;;5055090;28;20228;-81
2020/12/31 04:31:44;;;;;;;4.27;3.77;;;4.70;99.90;;;;;;5057889;28;20247;-79
2020/12/31 04:34:11;;;;;;;9.57;5.90;;;4.70;99.90;;;;;;5024168;28;20196;-79
2020/12/31 04:36:36;;;;;;;9.05;5.53;;;4.70;99.90;;;;;;5056682;28;20407;-80
2020/12/31 04:39:03;;;;;;;7.85;4.30;;;4.70;99.90;;;;;;5056193;28;20193;-80
2020/12/31 04:41:29;;;;;;;11.43;4.90;;;4.80;99.90;;;;;;5053968;28;20310;-80
2020/12/31 04:43:55;;;;;;;6.97;4.73;;;4.80;99.90;;;;;;5056754;28;20623;-79
2020/12/31 04:46:22;;;;;;;6.43;4.75;;;4.80;99.90;;;;;;5056944;28;20252;-80
2020/12/31 04:49:08;;;;;;;6.57;4.45;;;4.80;99.90;;;;;;5059805;28;20200;-80
2020/12/31 04:51:36;;;;;;;7.43;4.80;;;4.80;99.90;;;;;;5062093;28;20165;-80
2020/12/31 04:54:06;;;;;;;6.18;4.18;;;4.80;99.90;;;;;;5059618;28;20192;-79
2020/12/31 04:56:37;;;;;;;8.10;4.63;;;4.80;99.90;;;;;;5060167;28;20270;-80
2020/12/31 04:59:07;;;;;;;5.47;4.15;;;4.80;99.90;;;;;;5062216;28;20184;-79
2020/12/31 05:01:34;;;;;;;8.93;5.57;;;4.80;99.90;;;;;;5058059;28;20543;-80
2020/12/31 05:04:02;;;;;;;6.65;5.07;;;4.80;99.90;;;;;;5057923;28;20292;-80
2020/12/31 05:06:35;;;;;;;7.75;5.35;;;4.80;99.90;;;;;;5057981;28;20197;-80
2020/12/31 05:09:16;;;;;;;8.05;5.13;;;4.70;99.90;;;;;;5058131;28;20646;-79
2020/12/31 05:11:49;;;;;;;7.60;4.72;;;4.70;99.90;;;;;;5057909;28;20192;-80
2020/12/31 05:14:35;;;;;;;11.95;4.10;;;4.70;99.90;;;;;;5057850;28;20695;-80
2020/12/31 05:17:25;;;;;;;7.50;5.22;;;4.70;99.90;;;;;;5056249;28;20200;-80
2020/12/31 05:19:54;;;;;;;8.52;4.80;;;4.70;99.90;;;;;;5040442;28;20581;-81
2020/12/31 05:22:20;;;;;;;8.50;5.10;;;4.70;99.90;;;;;;5057283;28;20255;-80
2020/12/31 05:24:52;;;;;;;6.40;4.20;;;4.70;99.90;;;;;;5040569;28;20196;-79
2020/12/31 05:27:27;;;;;;;8.40;4.80;;;4.70;99.90;;;;;;5056591;28;20187;-80
2020/12/31 05:29:57;;;;;;;7.78;4.53;;;4.70;99.90;;;;;;5058207;28;20223;-79
2020/12/31 05:32:24;;;;;;;9.15;5.45;;;4.60;99.90;;;;;;5058429;28;20173;-79
2020/12/31 05:34:52;;;;;;;7.82;4.47;;;4.60;99.90;;;;;;5058070;28;20189;-80
2020/12/31 05:37:19;;;;;;;7.30;4.60;;;4.60;99.90;;;;;;5038871;28;20575;-80
2020/12/31 05:40:06;;;;;;;8.20;5.22;;;4.60;99.90;;;;;;5039103;28;20260;-78
2020/12/31 05:42:33;;;;;;;7.15;4.43;;;4.60;99.90;;;;;;5056857;28;20743;-79
2020/12/31 05:45:08;;;;;;;6.40;4.43;;;4.60;99.90;;;;;;5055471;28;20203;-79
2020/12/31 05:47:56;;;;;;;9.05;4.75;;;4.50;99.90;;;;;;5058352;28;20164;-79
2020/12/31 05:50:25;;;;;;;8.38;5.18;;;4.50;99.90;;;;;;5055850;28;20220;-81
2020/12/31 05:52:53;;;;;;;6.80;4.53;;;4.50;99.90;;;;;;5059498;28;20263;-79
2020/12/31 05:55:29;;;;;;;7.10;4.90;;;4.50;99.90;;;;;;5058935;28;20201;-79
2020/12/31 05:58:23;;;;;;;9.70;4.35;;;4.50;99.90;;;;;;5056158;28;20176;-79
2020/12/31 06:01:01;;;;;;;9.68;4.43;;;4.50;99.90;;;;;;5059043;28;20169;-79
2020/12/31 06:03:36;;;;;;;7.18;4.70;;;4.50;99.90;;;;;;5056187;28;20174;-78
2020/12/31 06:06:05;;;;;;;7.80;4.85;;;4.40;99.90;;;;;;5051112;28;20180;-79
2020/12/31 06:08:32;;;;;;;9.07;4.82;;;4.30;99.90;;;;;;5052742;28;20168;-79
2020/12/31 06:11:03;;;;;;;5.95;4.85;;;4.30;99.90;;;;;;5050371;28;20169;-78
2020/12/31 06:13:38;;;;;;;9.32;4.82;;;4.20;99.90;;;;;;5052418;28;20216;-78
2020/12/31 06:16:05;;;;;;;11.15;5.13;;;4.20;99.90;;;;;;5050587;28;20175;-79
2020/12/31 06:18:35;;;;;;;9.55;4.25;;;4.20;99.90;;;;;;5051230;28;20251;-78
2020/12/31 06:21:02;;;;;;;9.95;4.57;;;4.20;99.90;;;;;;5051385;28;20236;-79
2020/12/31 06:23:35;;;;;;;10.35;5.90;;;4.20;99.90;;;;;;5051009;28;20214;-78
2020/12/31 06:26:20;;;;;;;10.52;6.13;;;4.20;99.90;;;;;;5051978;28;20172;-79
2020/12/31 06:28:46;;;;;;;8.05;5.60;;;4.20;99.90;;;;;;5052230;28;20714;-79
2020/12/31 06:31:12;;;;;;;8.77;5.57;;;4.20;99.90;;;;;;5052335;28;20172;-79
2020/12/31 06:33:47;;;;;;;6.47;5.68;;;4.20;99.90;;;;;;5050474;28;20173;-79
2020/12/31 06:36:12;;;;;;;6.35;4.53;;;4.20;99.90;;;;;;5050845;28;20179;-77
2020/12/31 06:38:42;;;;;;;6.37;4.73;;;4.20;99.90;;;;;;5052382;28;20268;-79
2020/12/31 06:41:38;;;;;;;6.80;4.40;;;4.20;99.90;;;;;;5051816;28;20171;-78
2020/12/31 06:44:15;;;;;;;6.38;4.63;;;4.20;99.90;;;;;;5053733;28;20223;-78
2020/12/31 06:46:45;;;;;;;6.47;5.03;;;4.30;99.90;;;;;;5055537;28;20248;-78
2020/12/31 06:49:12;;;;;;;10.10;5.13;;;4.20;99.90;;;;;;5054327;28;20220;-79
2020/12/31 06:51:38;;;;;;;6.30;4.25;;;4.20;99.90;;;;;;5055554;28;20168;-78
2020/12/31 06:54:04;;;;;;;5.22;4.65;;;4.10;99.90;;;;;;5053724;28;20247;-78
2020/12/31 06:56:53;;;;;;;6.60;4.22;;;4.10;99.90;;;;;;5054521;28;20176;-78
2020/12/31 06:59:26;;;;;;;6.25;4.15;;;4.10;99.90;;;;;;5052970;28;20661;-80
2020/12/31 07:01:53;;;;;;;6.72;4.65;;;4.20;99.90;;;;;;5053979;28;20170;-78
2020/12/31 07:04:30;;;;;;;6.28;4.82;;;4.10;99.90;;;;;;5055723;28;20185;-79
2020/12/31 07:06:56;;;;;;;7.97;4.28;;;4.00;99.90;;;;;;5061092;28;20176;-76
2020/12/31 07:09:36;;;;;;;9.83;6.10;;;4.10;99.90;;;;;;5058451;28;20204;-79
2020/12/31 07:12:04;;;;;;;9.13;4.45;;;4.10;99.90;;;;;;5058750;28;20438;-78
2020/12/31 07:14:31;;;;;;;6.15;3.38;;;4.10;99.90;;;;;;5058431;28;20202;-80
2020/12/31 07:17:02;;;;;;;6.03;5.15;;;4.20;99.90;;;;;;5061851;28;20604;-80
2020/12/31 07:19:31;;;;;;;7.00;4.40;;;4.60;99.90;;;;;;5063905;28;20197;-80
2020/12/31 07:21:57;;;;;;;7.82;4.47;;;4.80;99.90;;;;;;5064723;28;20256;-81
2020/12/31 07:24:25;;;;;;;5.23;3.90;;;4.90;99.90;;;;;;5063057;28;20201;-80
2020/12/31 07:26:58;;;;;;;5.70;4.18;;;5.00;99.90;;;;;;5066447;28;20173;-79
2020/12/31 07:29:33;;;;;;;5.90;4.80;;;5.10;99.90;;;;;;5065711;28;20204;-80
2020/12/31 07:32:01;;;;;;;7.20;3.92;;;5.20;99.90;;;;;;5065834;28;20234;-80
2020/12/31 07:34:32;;;;;;;9.30;5.40;;;5.10;99.90;;;;;;5066109;28;20211;-80
2020/12/31 07:37:06;;;;;;;8.82;4.95;;;5.10;99.90;;;;;;5063997;28;20169;-80
2020/12/31 07:39:34;;;;;;;6.07;4.45;;;5.20;99.90;;;;;;5061286;28;20189;-79
2020/12/31 07:42:18;;;;;;;7.88;5.13;;;5.10;99.90;;;;;;5065910;28;20189;-81
2020/12/31 07:44:55;;;;;;;7.22;5.00;;;5.10;99.90;;;;;;5062956;28;20189;-80
2020/12/31 07:47:23;;;;;;;6.43;4.18;;;5.20;99.90;;;;;;5063708;28;20176;-80
2020/12/31 07:49:50;;;;;;;8.27;5.20;;;5.20;99.90;;;;;;5059606;28;20207;-78
2020/12/31 07:52:16;;;;;;;5.68;4.20;;;5.20;99.90;;;;;;5060974;28;20345;-80
2020/12/31 07:54:42;;;;;;;5.67;4.30;;;5.20;99.90;;;;;;5045621;28;20197;-79
2020/12/31 07:57:13;;;;;;;7.30;5.20;;;5.20;99.90;;;;;;5060347;28;20386;-79
2020/12/31 07:59:43;;;;;;;422.17;217.05;;;5.30;99.90;;;;;;5058559;28;20187;-80
2020/12/31 08:02:10;;;;;;;12.63;8.40;;;5.40;99.90;;;;;;5056841;28;20253;-80
2020/12/31 08:04:35;;;;;;;5.25;4.00;;;5.10;99.90;;;;;;5061109;28;20227;-79
2020/12/31 08:07:13;;;;;;;6.80;5.03;;;4.90;99.90;;;;;;5059567;28;20169;-80
2020/12/31 08:09:40;;;;;;;6.53;4.00;;;4.80;99.90;;;;;;5061604;28;20208;-78
2020/12/31 08:12:06;;;;;;;8.57;4.82;;;4.70;99.90;;;;;;5061513;28;20173;-79
2020/12/31 08:14:45;;;;;;;12.00;4.60;;;4.70;99.90;;;;;;5063787;28;20668;-79
2020/12/31 08:17:14;;;;;;;8.25;4.78;;;4.70;99.90;;;;;;5057487;28;20168;-81
2020/12/31 08:19:41;;;;;;;7.35;4.05;;;4.70;99.90;;;;;;5042474;28;20250;-79
2020/12/31 08:22:28;;;;;;;7.63;4.95;;;4.70;99.90;;;;;;5059795;28;20176;-82
2020/12/31 08:25:11;;;;;;;6.25;4.07;;;4.70;99.90;;;;;;5060663;28;20188;-81
2020/12/31 08:27:41;;;;;;;5.93;4.22;;;4.70;99.90;;;;;;5062339;28;20195;-82
2020/12/31 08:30:11;;;;;;;14.52;5.38;;;4.70;99.90;;;;;;5059692;28;20207;-82
2020/12/31 08:32:58;;;;;;;5.40;4.30;;;4.80;99.90;;;;;;5058884;28;20172;-79
2020/12/31 08:35:25;;;;;;;7.30;4.30;;;4.80;99.90;;;;;;5066113;28;20201;-81
2020/12/31 08:38:11;;;;;;;5.72;4.40;;;4.80;99.90;;;;;;5061878;28;20176;-80
2020/12/31 08:40:56;;;;;;;6.95;4.20;;;4.80;99.90;;;;;;5061953;28;20181;-80
2020/12/31 08:43:30;;;;;;;7.72;4.68;;;4.80;99.90;;;;;;5059851;28;20260;-81
2020/12/31 08:45:59;;;;;;;8.07;4.55;;;4.80;99.90;;;;;;5064697;28;20168;-81
2020/12/31 08:48:29;;;;;;;6.78;4.30;;;4.80;99.90;;;;;;5063306;28;20251;-82
2020/12/31 08:51:04;;;;;;;4.57;4.03;;;4.80;99.90;;;;;;5059502;28;20551;-82
2020/12/31 08:53:32;;;;;;;8.20;5.03;;;4.90;99.90;;;;;;5062705;28;20169;-82
2020/12/31 08:55:58;;;;;;;6.57;3.75;;;5.00;99.90;;;;;;5061466;28;20176;-81
2020/12/31 08:58:29;;;;;;;4.70;3.80;;;5.00;99.90;;;;;;5061438;28;20237;-83
2020/12/31 09:00:55;;;;;;;7.78;5.18;;;5.00;99.90;;;;;;5052067;28;20416;-80
2020/12/31 09:03:21;;;;;;;6.82;5.40;;;5.00;99.90;;;;;;5039301;28;20165;-80
2020/12/31 09:05:54;;;;;;;7.03;4.60;;;5.00;99.90;;;;;;5039252;28;20211;-80
2020/12/31 09:08:20;;;;;;;9.38;4.82;;;5.10;99.90;;;;;;5040313;28;20379;-81
2020/12/31 09:10:45;;;;;;;5.93;4.30;;;5.10;99.90;;;;;;5038905;28;20212;-81
2020/12/31 09:13:18;;;;;;;6.47;3.67;;;5.20;99.90;;;;;;5021923;28;20173;-81
2020/12/31 09:15:44;;;;;;;4.60;3.95;;;5.20;99.90;;;;;;5025870;28;20276;-80
2020/12/31 09:18:17;;;;;;;5.73;2.90;;;5.20;99.90;;;;;;5039107;28;20220;-80
2020/12/31 09:20:57;;;;;;;6.15;4.07;;;5.20;99.90;;;;;;5040118;28;20184;-81
2020/12/31 09:23:22;;;;;;;5.05;4.40;;;5.20;99.90;;;;;;5039594;28;20176;-81
2020/12/31 09:25:50;;;;;;;5.87;3.67;;;5.30;99.90;;;;;;5038490;28;20201;-81
2020/12/31 09:28:16;;;;;;;5.55;4.03;;;5.30;99.90;;;;;;5040725;28;20652;-80
2020/12/31 09:30:42;;;;;;;6.35;4.57;;;5.40;99.90;;;;;;5047651;28;20264;-81
2020/12/31 09:33:08;;;;;;;5.37;3.70;;;5.40;99.90;;;;;;5062862;28;20173;-82
2020/12/31 09:35:34;;;;;;;5.30;4.10;;;5.40;99.90;;;;;;5062895;28;20402;-81
2020/12/31 09:37:59;;;;;;;5.23;3.90;;;5.50;99.90;;;;;;5058054;28;20191;-81
2020/12/31 09:40:26;;;;;;;6.40;4.53;;;5.50;99.90;;;;;;5058393;28;20415;-80
2020/12/31 09:42:52;;;;;;;4.03;3.47;;;5.40;99.90;;;;;;5064290;28;20177;-81
2020/12/31 09:45:22;;;;;;;6.43;3.83;;;5.50;99.90;;;;;;5059170;28;20197;-80
2020/12/31 09:47:47;;;;;;;6.93;4.35;;;5.60;99.90;;;;;;5049066;28;20215;-80
2020/12/31 09:50:14;;;;;;;6.67;4.33;;;5.60;99.90;;;;;;5060557;28;20197;-85
2020/12/31 09:52:40;;;;;;;4.47;3.05;;;5.60;99.90;;;;;;5058110;28;20660;-80
2020/12/31 09:55:08;;;;;;;5.50;3.45;;;5.60;99.90;;;;;;5052718;28;20196;-79
2020/12/31 09:57:35;;;;;;;5.57;4.20;;;5.70;99.90;;;;;;5052954;28;20172;-79
2020/12/31 10:00:03;;;;;;;4.65;3.22;;;5.80;99.90;;;;;;5058121;28;20179;-80
2020/12/31 10:02:29;;;;;;;4.65;3.35;;;5.70;99.90;;;;;;5056167;28;20192;-80
2020/12/31 10:04:54;;;;;;;4.90;3.50;;;5.80;99.90;;;;;;5058644;28;20244;-79
2020/12/31 10:07:20;;;;;;;5.10;3.77;;;5.80;99.90;;;;;;5057082;28;20185;-79
2020/12/31 10:09:45;;;;;;;5.90;3.70;;;5.80;99.90;;;;;;5056751;28;20201;-79
2020/12/31 10:12:13;;;;;;;4.20;3.50;;;5.80;99.90;;;;;;5057448;28;20175;-80
2020/12/31 10:14:38;;;;;;;6.22;3.42;;;5.90;99.90;;;;;;5039435;28;20192;-83
2020/12/31 10:17:04;;;;;;;4.13;2.70;;;5.90;99.90;;;;;;5057459;28;20287;-82
2020/12/31 10:19:30;;;;;;;6.10;3.33;;;5.90;99.90;;;;;;5067322;28;20416;-81
2020/12/31 10:21:56;;;;;;;6.17;3.90;;;5.90;99.90;;;;;;5075087;28;20173;-82
2020/12/31 10:24:21;;;;;;;7.57;4.40;;;5.90;99.90;;;;;;5075001;28;20200;-81
2020/12/31 10:26:47;;;;;;;5.00;3.00;;;5.90;99.90;;;;;;5071658;28;20169;-83
2020/12/31 10:29:14;;;;;;;5.43;4.03;;;5.90;99.90;;;;;;5064806;28;20235;-81
2020/12/31 10:31:41;;;;;;;9.05;8.02;;;5.90;99.90;;;;;;5063243;28;20184;-80
2020/12/31 10:34:07;;;;;;;6.78;3.55;;;6.10;99.90;;;;;;5063119;28;20180;-79
2020/12/31 10:36:33;;;;;;;7.07;4.38;;;6.10;99.90;;;;;;5059626;28;20190;-80
2020/12/31 10:38:59;;;;;;;5.60;4.00;;;6.00;99.90;;;;;;5056796;28;20248;-80
2020/12/31 10:41:24;;;;;;;6.83;4.17;;;6.00;99.90;;;;;;5058145;28;20184;-79
2020/12/31 10:43:50;;;;;;;5.00;3.83;;;6.00;99.90;;;;;;5058060;28;20577;-80
2020/12/31 10:46:21;;;;;;;222.80;95.47;;;6.00;99.90;;;;;;5062715;28;20203;-81
2020/12/31 10:48:47;;;;;;;10.18;6.63;;;6.20;99.90;;;;;;5062644;28;20192;-81
2020/12/31 10:51:13;;;;;;;5.43;4.05;;;6.20;99.90;;;;;;5064016;28;20164;-81
2020/12/31 10:53:39;;;;;;;3.80;3.20;;;6.10;99.90;;;;;;5061277;28;20222;-81
2020/12/31 10:56:04;;;;;;;7.40;3.90;;;6.10;99.90;;;;;;5062192;28;20165;-81
2020/12/31 10:58:30;;;;;;;6.17;3.97;;;6.10;99.90;;;;;;5053634;28;20184;-82
2020/12/31 11:00:56;;;;;;;4.90;3.70;;;6.20;99.90;;;;;;5068456;28;20177;-82
2020/12/31 11:03:21;;;;;;;6.30;4.50;;;6.20;99.90;;;;;;5052479;28;20177;-82
2020/12/31 11:05:47;;;;;;;6.43;4.40;;;6.20;99.90;;;;;;5058973;28;20200;-82
2020/12/31 11:08:13;;;;;;;5.30;4.33;;;6.40;99.90;;;;;;5061708;28;20644;-82
2020/12/31 11:10:39;;;;;;;7.27;4.23;;;6.50;99.90;;;;;;5062062;28;20731;-81
2020/12/31 11:13:05;;;;;;;127.65;52.72;;;6.50;99.90;;;;;;5057877;28;20264;-82
2020/12/31 11:15:30;;;;;;;7.88;4.70;;;6.80;99.90;;;;;;5059571;28;20189;-81
2020/12/31 11:17:56;;;;;;;5.30;3.73;;;6.70;99.90;;;;;;5068284;28;20831;-82
2020/12/31 11:20:22;;;;;;;7.33;4.63;;;6.60;99.90;;;;;;5049061;28;20712;-80
2020/12/31 11:22:49;;;;;;;5.07;4.00;;;6.60;99.90;;;;;;5061269;28;20981;-78
2020/12/31 11:25:15;;;;;;;5.82;3.58;;;6.60;99.90;;;;;;5063220;28;20203;-79
2020/12/31 11:27:41;;;;;;;12.40;3.88;;;6.50;99.90;;;;;;5059441;28;20172;-79
2020/12/31 11:30:07;;;;;;;5.70;3.90;;;6.50;99.90;;;;;;5061796;28;20201;-79
2020/12/31 11:32:41;;;;;;;5.67;3.60;;;6.50;99.90;;;;;;5058275;28;20169;-79
2020/12/31 11:35:08;;;;;;;4.53;3.55;;;6.40;99.90;;;;;;5059955;28;20434;-80
2020/12/31 11:37:34;;;;;;;711.20;429.48;;;6.40;99.90;;;;;;5060401;28;20185;-78
2020/12/31 11:40:00;;;;;;;191.68;98.32;;;6.40;99.90;;;;;;5060966;28;20175;-79
2020/12/31 11:42:32;;;;;;;10.27;8.73;;;6.80;99.90;;;;;;5060362;28;20165;-79
2020/12/31 11:44:58;;;;;;;5.53;4.20;;;7.40;99.90;;;;;;5062125;28;20247;-79
2020/12/31 11:47:24;;;;;;;7.28;4.60;;;8.30;99.90;;;;;;5061590;28;20745;-79
2020/12/31 11:49:49;;;;;;;5.27;3.70;;;8.00;99.90;;;;;;5058672;28;20201;-79
2020/12/31 11:52:15;;;;;;;5.20;4.13;;;8.00;99.90;;;;;;5055848;28;20227;-79
2020/12/31 11:54:41;;;;;;;6.27;4.40;;;7.90;99.90;;;;;;5058257;28;20737;-78
2020/12/31 11:57:06;;;;;;;5.60;3.73;;;7.80;99.90;;;;;;5057099;28;20508;-77
2020/12/31 11:59:32;;;;;;;7.80;4.87;;;7.80;99.90;;;;;;5059229;28;20173;-81
2020/12/31 12:01:58;;;;;;;5.67;4.20;;;7.50;99.90;;;;;;5062826;28;20435;-81
2020/12/31 12:04:23;;;;;;;9.07;4.37;;;7.20;99.90;;;;;;5063539;28;20196;-82
2020/12/31 12:06:54;;;;;;;6.70;3.83;;;6.90;99.90;;;;;;5065277;28;20183;-81
2020/12/31 12:09:21;;;;;;;8.93;4.25;;;6.70;99.90;;;;;;5064439;28;20200;-78
2020/12/31 12:11:47;;;;;;;6.80;4.28;;;6.60;99.90;;;;;;5060694;28;20168;-78
2020/12/31 12:14:13;;;;;;;6.88;4.53;;;6.60;99.90;;;;;;5058742;28;20216;-79
2020/12/31 12:16:40;;;;;;;7.90;4.53;;;6.50;99.90;;;;;;5063802;28;20219;-80
2020/12/31 12:19:06;;;;;;;5.70;3.53;;;6.50;99.90;;;;;;5066772;28;20195;-79
2020/12/31 12:21:32;;;;;;;8.68;4.85;;;6.50;99.90;;;;;;5060702;28;20173;-78
2020/12/31 12:23:58;;;;;;;12.53;5.20;;;6.50;99.90;;;;;;5067975;28;20196;-80
2020/12/31 12:26:34;;;;;;;6.27;4.30;;;6.40;99.90;;;;;;5067094;28;20196;-81
2020/12/31 12:29:00;;;;;;;9.25;4.85;;;6.30;99.90;;;;;;5062092;28;20256;-82
2020/12/31 12:31:31;;;;;;;5.27;3.57;;;6.30;99.90;;;;;;5043603;28;20573;-81
2020/12/31 12:33:57;;;;;;;9.23;4.57;;;6.20;99.90;;;;;;5049816;28;20447;-82
2020/12/31 12:36:22;;;;;;;8.00;4.78;;;6.30;99.90;;;;;;5045394;28;20196;-79
2020/12/31 12:38:48;;;;;;;5.40;4.50;;;6.20;99.90;;;;;;5035975;28;20652;-78
2020/12/31 12:41:14;;;;;;;4.60;4.00;;;6.20;99.90;;;;;;5038245;28;20193;-77
2020/12/31 12:43:40;;;;;;;7.53;5.23;;;6.20;99.90;;;;;;5034884;28;20170;-77
2020/12/31 12:46:18;;;;;;;5.17;3.87;;;6.20;99.90;;;;;;5034374;28;20180;-78
2020/12/31 12:48:50;;;;;;;8.50;4.53;;;6.20;99.90;;;;;;5036304;28;20196;-82
2020/12/31 12:51:16;;;;;;;6.65;4.00;;;6.20;99.90;;;;;;5044096;28;20244;-82
2020/12/31 12:53:41;;;;;;;8.10;4.27;;;6.20;99.90;;;;;;5043574;28;20181;-81
2020/12/31 12:56:10;;;;;;;5.60;4.00;;;6.20;99.90;;;;;;5042993;28;20419;-81
2020/12/31 12:58:36;;;;;;;8.48;4.85;;;6.30;99.90;;;;;;5054455;28;20177;-80
2020/12/31 13:01:02;;;;;;;6.30;4.93;;;6.30;99.90;;;;;;5060978;28;20260;-81